CheckWX is a tool to help pilots better visualize weather data.  It is not intended as a substitute for an official pre-flight weather briefing.

15:43:04 UTC

GVBA TAF
Rabil Airport
Rabil, Cape Verde
TAF GVBA 191100Z 1912/2018 04017KT 9999 SCT014 PROB30 TEMPO 2000/2007 04007KT

Nov-19@
12:00 UTC

Nov-19 @ 12:00 UTC

Nov-20@
18:00 UTC

Nov-20 @ 18:00 UTC

TAF GVBA 191100Z 1912/2018 04017KT 9999 SCT014
Wind
  • 040° at 17 KTS
Cloud Levels
  • Scattered at 1,400' AGL

Nov-20@
00:00 UTC

Nov-20 @ 00:00 UTC

Nov-20@
07:00 UTC

Nov-20 @ 07:00 UTC

PROB30 TEMPO 2000/2007 04007KT

Temporary - 30% Likelihood

Temporary - 30% Likelihood during this time.

Wind
  • 040° at 7 KTS